Dayton, Wyoming
Current Conditions -  °F | °C
As of 3:15 PM on Tuesday 25 Nov 2014 (Local Time) from KSHR Reporting Station
Heavy Snow Heavy Snow  
Wind Chill: 22°   Ceiling: 900
Heat Index: 33°   Visibility: 0.25mi
Dew Point: 31°   Wind: 17mph
Humidity: 92%   Direction: 350°N
Pressure: 29.99"   Gusts: NA
Location:  44.88°N, 107.26°W
Report Text: KSHR 252215Z AUTO 35015KT 1/4SM +SN FG FEW003 BKN009 OVC016 01/M01 A2999 RMK AO2 PRESRR P0002 T00061006 TSNO
Loading
Personal Weather Stations






























Interactive Weather Map New forecast layout! Learn more

10-Day Weather Forecast

Advertisements
Track Severe Weather on mobile